Overview Statistics Trail Chart Weather Telemetry Raw packets
 

This is the latest recevied weather packets stored in our database for station/object KD4PMP. If no packets are shown the sender has not sent any weather packets the latest 10 day(s).

<< 54 55 56 57 >>
Time Temp. Humidity Pressure Rain* Wind** Luminosity Snow
1787782067 26.67° C 82% 1012.7 hPa 0 mm - - -
1787781461 26.11° C 85% 1012.6 hPa 0 mm - - -
1787780854 25.56° C 89% 1012.4 hPa 0 mm - - -
1787780248 25° C 89% 1012.7 hPa 0 mm - - -
1787779642 24.44° C 95% 1012.7 hPa 0 mm - - -
1787779035 23.89° C 96% 1012.9 hPa 0 mm - - -
1787778429 23.33° C 96% 1012.6 hPa 0 mm - - -
1787777822 22.78° C 96% 1013.2 hPa 0 mm - - -
1787777216 22.78° C 96% 1013.4 hPa 0 mm - - -
1787776610 22.78° C 95% 1013.7 hPa 0 mm - - -
1787776004 22.78° C 96% 1013.3 hPa 0 mm - - -
1787775397 22.78° C 96% 1012.4 hPa 0 mm - - -
1787774790 22.78° C 95% 1012.3 hPa 0 mm - - -
1787774184 22.78° C 95% 1012.5 hPa 0 mm - - -
1787773578 22.78° C 95% 1013.2 hPa 0 mm - - -
1787772972 22.78° C 94% 1013.9 hPa 0 mm - - -
1787772365 22.78° C 93% 1014.2 hPa 0 mm - - -
1787771759 23.33° C 92% 1014.5 hPa 0 mm - - -
1787771153 23.33° C 91% 1014.9 hPa 0 mm - - -
1787770547 23.33° C 90% 1015.1 hPa 0 mm - - -
1787769940 23.89° C 87% 1015.1 hPa 0 mm - - -
1787769333 25° C 85% 1015.3 hPa 0 mm - - -
1787768727 26.11° C 79% 1015.4 hPa 0 mm - - -
1787768121 27.78° C 77% 1015.4 hPa 0 mm - - -
1787767514 27.78° C 76% 1014.5 hPa 0 mm - - -

* Rain latest hour (hover to see other rain measurements)
** Current wind speed in m/s (hover to see current wind gust speed)